Boykins, Virginia
Current Conditions -  °F | °C
As of 3:35 PM on Saturday 25 Oct 2014 (Local Time) from KEMV Reporting Station
Clear Clear  
Wind Chill: 68°   Ceiling: Unl
Heat Index: 68°   Visibility: 10mi
Dew Point: 43°   Wind: 6mph
Humidity: 40%   Direction: 250°WSW
Pressure: 29.9"   Gusts: NA
Location:  36.58°N, 77.2°W
Report Text: KEMV 251935Z AUTO 25005KT 10SM CLR 20/06 A2990 RMK AO2
Loading
Personal Weather Stations






























Interactive Weather Map
Tropical Storm Tracking
New forecast layout! Learn more

10-Day Weather Forecast

Advertisements
Track Severe Weather on mobile